aviador You're here:

SCTE Decoded Metar

PUERTO MONTT in CHILE
Report Time2018-01-16 07:00:00
UTC Time2018-01-16 07:27:48
Flight Rules vfr VFR
WindVRB at 02 kt
Visibility9999 m
Phenomena:N/A
Clouds:N/A
Expected CloudBase > 400 ft AGL from Temp-Dew spread
CeilingNone
Temp09°C (ISA -5)
Dew Point08°C (94% RH)
AAT7.8°C
QNH1020 hPa
Density Alt-463 ft
Elevation282 ft
Report Wrong Elevation
Raw Report
SCTE 160700Z VRB02KT CAVOK 09/08 Q1020 NOSIG=

Extra information for SCTE:More info

Metar Taf Metar & Taf Last 4 Metars F.Rules Stats Wind Profile Meteogram Temp Stats Airport Information Weather charts Add Link Nearby VenuesMetar ALERT Operation Metar Decoded Social comments